TimeCST,TemperatureF,Dew PointF,Humidity,Sea Level PressureIn,VisibilityMPH,Wind Direction,Wind SpeedMPH,Gust SpeedMPH,PrecipitationIn,Events,Conditions,WindDirDegrees,DateUTC
12:15 AM,29.1,24.8,84,30.26,10.0,East,6.9,-,N/A,,Clear,100,2013-11-20 06:15:00
12:35 AM,28.8,24.4,84,30.26,10.0,East,8.1,-,N/A,,Clear,100,2013-11-20 06:35:00
12:55 AM,28.2,23.9,84,30.25,10.0,East,8.1,-,N/A,,Clear,100,2013-11-20 06:55:00
1:15 AM,28.2,23.9,84,30.25,10.0,ESE,6.9,-,N/A,,Clear,110,2013-11-20 07:15:00
1:35 AM,28.2,24.3,85,30.25,10.0,ESE,6.9,-,N/A,,Clear,110,2013-11-20 07:35:00
1:55 AM,27.7,23.9,86,30.26,10.0,ESE,6.9,-,N/A,,Clear,110,2013-11-20 07:55:00
2:15 AM,27.5,23.7,86,30.26,10.0,East,6.9,-,N/A,,Clear,100,2013-11-20 08:15:00
2:35 AM,27.1,23.0,84,30.26,10.0,ESE,5.8,-,N/A,,Clear,110,2013-11-20 08:35:00
2:55 AM,27.0,23.0,85,30.25,10.0,ESE,5.8,-,N/A,,Clear,110,2013-11-20 08:55:00
3:15 AM,26.6,22.6,85,30.25,10.0,East,5.8,-,N/A,,Clear,100,2013-11-20 09:15:00
3:35 AM,26.1,22.1,85,30.26,10.0,ESE,3.5,-,N/A,,Clear,110,2013-11-20 09:35:00
3:55 AM,25.5,21.6,85,30.26,10.0,ESE,4.6,-,N/A,,Clear,120,2013-11-20 09:55:00
4:15 AM,25.3,21.2,84,30.26,10.0,ESE,5.8,-,N/A,,Clear,110,2013-11-20 10:15:00
4:35 AM,25.3,21.6,86,30.25,10.0,ESE,4.6,-,N/A,,Clear,110,2013-11-20 10:35:00
4:55 AM,25.7,21.9,86,30.26,10.0,ESE,4.6,-,N/A,,Clear,120,2013-11-20 10:55:00
5:15 AM,25.5,21.7,86,30.25,10.0,ESE,4.6,-,N/A,,Clear,110,2013-11-20 11:15:00
5:35 AM,25.2,21.2,85,30.25,10.0,East,4.6,-,N/A,,Clear,100,2013-11-20 11:35:00
5:55 AM,25.5,21.7,86,30.24,10.0,East,6.9,-,N/A,,Clear,100,2013-11-20 11:55:00
6:15 AM,26.6,23.0,86,30.23,10.0,East,9.2,-,N/A,,Clear,90,2013-11-20 12:15:00
6:35 AM,27.3,23.9,87,30.22,10.0,East,10.4,-,N/A,,Clear,90,2013-11-20 12:35:00
6:55 AM,27.5,24.4,88,30.24,10.0,East,8.1,-,N/A,,Clear,100,2013-11-20 12:55:00
8:35 AM,32.4,26.8,80,30.22,10.0,ESE,11.5,-,N/A,,Unknown,120,2013-11-20 14:35:00
8:55 AM,33.8,28.2,80,30.23,10.0,SE,10.4,-,N/A,,Unknown,130,2013-11-20 14:55:00
9:15 AM,34.3,27.7,77,30.23,10.0,SE,10.4,-,N/A,,Unknown,140,2013-11-20 15:15:00
9:35 AM,35.1,27.9,75,30.22,10.0,SE,13.8,-,N/A,,Unknown,130,2013-11-20 15:35:00
9:55 AM,37.4,28.8,71,30.23,10.0,SE,10.4,-,N/A,,Unknown,130,2013-11-20 15:55:00
10:15 AM,-9999,-9999,N/A,30.22,-9999.0,North,-9999.0,-,N/A,,Unknown,0,2013-11-20 16:15:00
10:35 AM,-9999,-9999,N/A,-9999,-9999.0,North,-9999.0,-,N/A,,Unknown,0,2013-11-20 16:35:00
10:55 AM,41.0,28.9,62,30.19,10.0,SE,11.5,-,N/A,,Clear,140,2013-11-20 16:55:00
11:15 AM,40.6,28.8,63,30.19,10.0,SE,12.7,-,N/A,,Clear,130,2013-11-20 17:15:00
11:35 AM,41.4,29.1,62,30.18,10.0,SE,9.2,-,N/A,,Clear,140,2013-11-20 17:35:00
11:55 AM,42.4,29.1,59,30.17,10.0,SE,9.2,-,N/A,,Clear,130,2013-11-20 17:55:00
12:15 PM,42.3,29.1,60,30.15,10.0,SE,8.1,-,N/A,,Clear,130,2013-11-20 18:15:00
12:35 PM,42.1,29.3,61,30.15,10.0,SSE,6.9,-,N/A,,Clear,160,2013-11-20 18:35:00
12:55 PM,43.9,29.1,56,30.15,10.0,SSE,8.1,-,N/A,,Clear,150,2013-11-20 18:55:00
1:15 PM,43.3,28.9,57,30.13,10.0,SE,8.1,-,N/A,,Clear,140,2013-11-20 19:15:00
1:35 PM,43.3,28.9,57,30.13,10.0,SSE,8.1,-,N/A,,Clear,160,2013-11-20 19:35:00
1:55 PM,43.5,29.7,58,30.13,10.0,SSE,8.1,-,N/A,,Clear,150,2013-11-20 19:55:00
2:15 PM,43.2,29.5,59,30.13,10.0,SSE,6.9,-,N/A,,Clear,150,2013-11-20 20:15:00
2:35 PM,43.2,28.9,57,30.14,10.0,SSE,9.2,-,N/A,,Clear,150,2013-11-20 20:35:00
2:55 PM,43.0,29.7,59,30.13,10.0,SE,6.9,-,N/A,,Clear,140,2013-11-20 20:55:00
3:15 PM,42.8,30.2,61,30.13,10.0,SSE,5.8,-,N/A,,Clear,150,2013-11-20 21:15:00
3:35 PM,42.8,30.6,62,30.13,10.0,SSE,5.8,-,N/A,,Scattered Clouds,150,2013-11-20 21:35:00
3:55 PM,42.8,31.3,64,30.13,10.0,SE,5.8,-,N/A,,Overcast,130,2013-11-20 21:55:00
4:15 PM,42.4,31.8,66,30.13,10.0,SE,5.8,-,N/A,,Overcast,140,2013-11-20 22:15:00
4:35 PM,42.3,32.0,67,30.13,10.0,SSE,4.6,-,N/A,,Overcast,150,2013-11-20 22:35:00
4:55 PM,42.1,32.0,67,30.13,10.0,SE,5.8,-,N/A,Rain,Light Rain,130,2013-11-20 22:55:00
5:15 PM,41.5,32.7,71,30.13,10.0,SE,4.6,-,N/A,,Overcast,130,2013-11-20 23:15:00
5:35 PM,41.5,32.7,71,30.13,10.0,ESE,4.6,-,N/A,,Overcast,120,2013-11-20 23:35:00
5:55 PM,41.7,32.5,70,30.12,10.0,ESE,4.6,-,N/A,,Overcast,110,2013-11-20 23:55:00
6:15 PM,41.9,32.0,68,30.11,10.0,ESE,8.1,-,N/A,Rain,Light Rain,120,2013-11-21 00:15:00
6:35 PM,41.9,32.2,68,30.11,10.0,SE,6.9,-,N/A,,Overcast,130,2013-11-21 00:35:00
6:55 PM,41.4,32.7,71,30.10,10.0,SE,6.9,-,N/A,,Overcast,130,2013-11-21 00:55:00
7:15 PM,41.9,32.9,70,30.11,10.0,SE,6.9,-,N/A,Rain,Light Rain,130,2013-11-21 01:15:00
7:35 PM,41.9,32.9,70,30.10,10.0,SE,6.9,-,N/A,,Overcast,140,2013-11-21 01:35:00
7:55 PM,42.3,32.9,69,30.10,10.0,SE,6.9,-,N/A,,Overcast,140,2013-11-21 01:55:00
8:15 PM,42.3,33.3,70,30.11,10.0,SE,6.9,-,N/A,,Overcast,140,2013-11-21 02:15:00
8:35 PM,42.4,33.8,71,30.09,10.0,SSE,10.4,-,N/A,Rain,Light Rain,150,2013-11-21 02:35:00
8:55 PM,42.3,34.3,74,30.10,10.0,SSE,8.1,-,N/A,Rain,Light Rain,150,2013-11-21 02:55:00
9:15 PM,42.3,34.9,75,30.11,10.0,SE,3.5,-,N/A,Rain,Light Rain,130,2013-11-21 03:15:00
9:35 PM,41.9,34.9,76,30.11,10.0,ESE,4.6,-,N/A,,Overcast,120,2013-11-21 03:35:00
9:55 PM,42.6,35.1,75,30.11,10.0,SE,4.6,-,N/A,,Overcast,130,2013-11-21 03:55:00
10:15 PM,43.7,34.3,70,30.12,10.0,Calm,Calm,-,N/A,,Overcast,0,2013-11-21 04:15:00
10:35 PM,43.5,35.2,73,30.13,10.0,East,3.5,-,N/A,,Overcast,100,2013-11-21 04:35:00
10:55 PM,43.2,36.0,76,30.12,10.0,East,4.6,-,N/A,Rain,Light Rain,100,2013-11-21 04:55:00
11:15 PM,43.3,36.0,75,30.13,10.0,SE,6.9,-,N/A,Rain,Light Rain,130,2013-11-21 05:15:00
11:35 PM,43.9,35.4,72,30.13,10.0,SE,5.8,-,N/A,Rain,Light Rain,130,2013-11-21 05:35:00
11:55 PM,44.1,35.6,72,30.12,10.0,SE,5.8,-,N/A,,Overcast,130,2013-11-21 05:55:00